sensor_id;sensor_type;location;lat;lon;timestamp;temperature;humidity
11009;DHT22;5557;51.670;7.788;2023-02-03T00:02:06;8.20;99.90
11009;DHT22;5557;51.670;7.788;2023-02-03T00:04:33;8.20;99.90
11009;DHT22;5557;51.670;7.788;2023-02-03T00:07:00;8.20;99.90
11009;DHT22;5557;51.670;7.788;2023-02-03T00:09:27;8.20;99.90
11009;DHT22;5557;51.670;7.788;2023-02-03T00:11:54;8.20;99.90
11009;DHT22;5557;51.670;7.788;2023-02-03T00:14:21;8.20;99.90
11009;DHT22;5557;51.670;7.788;2023-02-03T00:16:48;8.30;99.90
11009;DHT22;5557;51.670;7.788;2023-02-03T00:19:15;8.30;99.90
11009;DHT22;5557;51.670;7.788;2023-02-03T00:21:43;8.30;99.90
11009;DHT22;5557;51.670;7.788;2023-02-03T00:24:10;8.20;99.90
11009;DHT22;5557;51.670;7.788;2023-02-03T00:26:43;8.20;99.90
11009;DHT22;5557;51.670;7.788;2023-02-03T00:29:10;8.30;99.90
11009;DHT22;5557;51.670;7.788;2023-02-03T00:31:38;8.20;99.90
11009;DHT22;5557;51.670;7.788;2023-02-03T00:34:05;8.20;99.90
11009;DHT22;5557;51.670;7.788;2023-02-03T00:36:32;8.20;99.90
11009;DHT22;5557;51.670;7.788;2023-02-03T00:39:00;8.20;99.90
11009;DHT22;5557;51.670;7.788;2023-02-03T00:41:29;8.30;99.90
11009;DHT22;5557;51.670;7.788;2023-02-03T00:43:57;8.20;99.90
11009;DHT22;5557;51.670;7.788;2023-02-03T00:46:24;8.20;99.90
11009;DHT22;5557;51.670;7.788;2023-02-03T00:48:51;8.30;99.90
11009;DHT22;5557;51.670;7.788;2023-02-03T00:51:18;8.30;99.90
11009;DHT22;5557;51.670;7.788;2023-02-03T00:53:45;8.30;99.90
11009;DHT22;5557;51.670;7.788;2023-02-03T00:56:12;8.30;99.90
11009;DHT22;5557;51.670;7.788;2023-02-03T00:58:40;8.30;99.90
11009;DHT22;5557;51.670;7.788;2023-02-03T01:01:07;8.30;99.90
11009;DHT22;5557;51.670;7.788;2023-02-03T01:03:34;8.30;99.90
11009;DHT22;5557;51.670;7.788;2023-02-03T01:06:13;8.30;99.90
11009;DHT22;5557;51.670;7.788;2023-02-03T01:08:41;8.40;99.90
11009;DHT22;5557;51.670;7.788;2023-02-03T01:11:09;8.30;99.90
11009;DHT22;5557;51.670;7.788;2023-02-03T01:13:37;8.40;99.90
11009;DHT22;5557;51.670;7.788;2023-02-03T01:16:15;8.30;99.90
11009;DHT22;5557;51.670;7.788;2023-02-03T01:18:43;8.40;99.90
11009;DHT22;5557;51.670;7.788;2023-02-03T01:21:21;8.40;99.90
11009;DHT22;5557;51.670;7.788;2023-02-03T01:23:50;8.40;99.90
11009;DHT22;5557;51.670;7.788;2023-02-03T01:26:19;8.40;99.90
11009;DHT22;5557;51.670;7.788;2023-02-03T01:28:51;8.40;99.90
11009;DHT22;5557;51.670;7.788;2023-02-03T01:31:21;8.40;99.90
11009;DHT22;5557;51.670;7.788;2023-02-03T01:33:51;8.40;99.90
11009;DHT22;5557;51.670;7.788;2023-02-03T01:36:22;8.40;99.90
11009;DHT22;5557;51.670;7.788;2023-02-03T01:38:49;8.40;99.90
11009;DHT22;5557;51.670;7.788;2023-02-03T01:41:21;8.50;99.90
11009;DHT22;5557;51.670;7.788;2023-02-03T01:43:51;8.50;99.90
11009;DHT22;5557;51.670;7.788;2023-02-03T01:46:37;8.40;99.90
11009;DHT22;5557;51.670;7.788;2023-02-03T01:49:19;8.40;99.90
11009;DHT22;5557;51.670;7.788;2023-02-03T01:51:48;8.40;99.90
11009;DHT22;5557;51.670;7.788;2023-02-03T01:54:22;8.40;99.90
11009;DHT22;5557;51.670;7.788;2023-02-03T01:56:54;8.40;99.90
11009;DHT22;5557;51.670;7.788;2023-02-03T01:59:23;8.50;99.90
11009;DHT22;5557;51.670;7.788;2023-02-03T02:01:52;8.50;99.90
11009;DHT22;5557;51.670;7.788;2023-02-03T02:04:21;8.50;99.90
11009;DHT22;5557;51.670;7.788;2023-02-03T02:06:50;8.50;99.90
11009;DHT22;5557;51.670;7.788;2023-02-03T02:09:17;8.50;99.90
11009;DHT22;5557;51.670;7.788;2023-02-03T02:11:44;8.50;99.90
11009;DHT22;5557;51.670;7.788;2023-02-03T02:14:11;8.50;99.90
11009;DHT22;5557;51.670;7.788;2023-02-03T02:17:01;8.50;99.90
11009;DHT22;5557;51.670;7.788;2023-02-03T02:20:17;8.50;99.90
11009;DHT22;5557;51.670;7.788;2023-02-03T02:23:17;8.50;99.90
11009;DHT22;5557;51.670;7.788;2023-02-03T02:32:05;8.50;99.90
11009;DHT22;5557;51.670;7.788;2023-02-03T02:37:58;8.60;99.90
11009;DHT22;5557;51.670;7.788;2023-02-03T02:40:49;8.50;99.90
11009;DHT22;5557;51.670;7.788;2023-02-03T02:43:46;8.60;99.90
11009;DHT22;5557;51.670;7.788;2023-02-03T02:46:25;8.60;99.90
11009;DHT22;5557;51.670;7.788;2023-02-03T02:49:14;8.60;99.90
11009;DHT22;5557;51.670;7.788;2023-02-03T02:51:43;8.50;99.90
11009;DHT22;5557;51.670;7.788;2023-02-03T02:54:15;8.60;99.90
11009;DHT22;5557;51.670;7.788;2023-02-03T02:56:47;8.50;99.90
11009;DHT22;5557;51.670;7.788;2023-02-03T02:59:14;8.50;99.90
11009;DHT22;5557;51.670;7.788;2023-02-03T03:01:41;8.50;99.90
11009;DHT22;5557;51.670;7.788;2023-02-03T03:04:09;8.50;99.90
11009;DHT22;5557;51.670;7.788;2023-02-03T03:06:42;8.50;99.90
11009;DHT22;5557;51.670;7.788;2023-02-03T03:09:15;8.50;99.90
11009;DHT22;5557;51.670;7.788;2023-02-03T03:11:49;8.50;99.90
11009;DHT22;5557;51.670;7.788;2023-02-03T03:14:18;8.60;99.90
11009;DHT22;5557;51.670;7.788;2023-02-03T03:16:51;8.60;99.90
11009;DHT22;5557;51.670;7.788;2023-02-03T03:19:24;8.60;99.90
11009;DHT22;5557;51.670;7.788;2023-02-03T03:21:57;8.60;99.90
11009;DHT22;5557;51.670;7.788;2023-02-03T03:24:29;8.60;99.90
11009;DHT22;5557;51.670;7.788;2023-02-03T03:27:10;8.60;99.90
11009;DHT22;5557;51.670;7.788;2023-02-03T03:29:55;8.60;99.90
11009;DHT22;5557;51.670;7.788;2023-02-03T03:32:23;8.60;99.90
11009;DHT22;5557;51.670;7.788;2023-02-03T03:34:54;8.60;99.90
11009;DHT22;5557;51.670;7.788;2023-02-03T03:37:35;8.50;99.90
11009;DHT22;5557;51.670;7.788;2023-02-03T03:40:16;8.60;99.90
11009;DHT22;5557;51.670;7.788;2023-02-03T03:42:49;8.60;99.90
11009;DHT22;5557;51.670;7.788;2023-02-03T03:45:39;8.60;99.90
11009;DHT22;5557;51.670;7.788;2023-02-03T03:50:47;8.60;99.90
11009;DHT22;5557;51.670;7.788;2023-02-03T03:53:16;8.60;99.90
11009;DHT22;5557;51.670;7.788;2023-02-03T03:55:47;8.60;99.90
11009;DHT22;5557;51.670;7.788;2023-02-03T03:58:22;8.60;99.90
11009;DHT22;5557;51.670;7.788;2023-02-03T04:00:53;8.60;99.90
11009;DHT22;5557;51.670;7.788;2023-02-03T04:03:24;8.60;99.30
11009;DHT22;5557;51.670;7.788;2023-02-03T04:05:51;8.60;99.00
11009;DHT22;5557;51.670;7.788;2023-02-03T04:08:18;8.60;98.80
11009;DHT22;5557;51.670;7.788;2023-02-03T04:10:45;8.60;99.00
11009;DHT22;5557;51.670;7.788;2023-02-03T04:13:12;8.60;99.30
11009;DHT22;5557;51.670;7.788;2023-02-03T04:15:41;8.60;99.10
11009;DHT22;5557;51.670;7.788;2023-02-03T04:18:11;8.60;97.60
11009;DHT22;5557;51.670;7.788;2023-02-03T04:20:38;8.60;97.80
11009;DHT22;5557;51.670;7.788;2023-02-03T04:23:06;8.60;97.20
11009;DHT22;5557;51.670;7.788;2023-02-03T04:25:33;8.60;96.90
11009;DHT22;5557;51.670;7.788;2023-02-03T04:28:01;8.60;96.00
11009;DHT22;5557;51.670;7.788;2023-02-03T04:30:28;8.60;95.30
11009;DHT22;5557;51.670;7.788;2023-02-03T04:32:55;8.70;95.80
11009;DHT22;5557;51.670;7.788;2023-02-03T04:35:23;8.70;94.90
11009;DHT22;5557;51.670;7.788;2023-02-03T04:37:50;8.70;93.80
11009;DHT22;5557;51.670;7.788;2023-02-03T04:40:17;8.70;93.90
11009;DHT22;5557;51.670;7.788;2023-02-03T04:42:44;8.60;93.90
11009;DHT22;5557;51.670;7.788;2023-02-03T04:45:11;8.60;93.80
11009;DHT22;5557;51.670;7.788;2023-02-03T04:47:38;8.60;94.10
11009;DHT22;5557;51.670;7.788;2023-02-03T04:50:06;8.60;93.60
11009;DHT22;5557;51.670;7.788;2023-02-03T04:52:33;8.70;91.60
11009;DHT22;5557;51.670;7.788;2023-02-03T04:55:00;8.70;90.00
11009;DHT22;5557;51.670;7.788;2023-02-03T04:57:26;8.80;89.20
11009;DHT22;5557;51.670;7.788;2023-02-03T04:59:53;8.80;90.40
11009;DHT22;5557;51.670;7.788;2023-02-03T05:02:20;8.80;89.20
11009;DHT22;5557;51.670;7.788;2023-02-03T05:04:47;8.80;90.30
11009;DHT22;5557;51.670;7.788;2023-02-03T05:07:14;8.80;90.00
11009;DHT22;5557;51.670;7.788;2023-02-03T05:09:41;8.80;90.60
11009;DHT22;5557;51.670;7.788;2023-02-03T05:12:08;8.70;91.10
11009;DHT22;5557;51.670;7.788;2023-02-03T05:14:35;8.70;91.60
11009;DHT22;5557;51.670;7.788;2023-02-03T05:17:02;8.70;91.70
11009;DHT22;5557;51.670;7.788;2023-02-03T05:19:28;8.70;91.60
11009;DHT22;5557;51.670;7.788;2023-02-03T05:21:55;8.70;91.80
11009;DHT22;5557;51.670;7.788;2023-02-03T05:24:22;8.70;92.30
11009;DHT22;5557;51.670;7.788;2023-02-03T05:26:49;8.70;92.60
11009;DHT22;5557;51.670;7.788;2023-02-03T05:29:16;8.70;92.60
11009;DHT22;5557;51.670;7.788;2023-02-03T05:31:43;8.70;93.20
11009;DHT22;5557;51.670;7.788;2023-02-03T05:34:10;8.60;93.80
11009;DHT22;5557;51.670;7.788;2023-02-03T05:36:37;8.60;94.20
11009;DHT22;5557;51.670;7.788;2023-02-03T05:39:04;8.60;94.50
11009;DHT22;5557;51.670;7.788;2023-02-03T05:41:31;8.60;94.80
11009;DHT22;5557;51.670;7.788;2023-02-03T05:44:20;8.60;95.30
11009;DHT22;5557;51.670;7.788;2023-02-03T05:46:47;8.60;94.40
11009;DHT22;5557;51.670;7.788;2023-02-03T05:49:15;8.70;94.00
11009;DHT22;5557;51.670;7.788;2023-02-03T05:51:42;8.70;93.90
11009;DHT22;5557;51.670;7.788;2023-02-03T05:54:09;8.70;93.30
11009;DHT22;5557;51.670;7.788;2023-02-03T05:56:36;8.70;93.50
11009;DHT22;5557;51.670;7.788;2023-02-03T05:59:04;8.70;93.20
11009;DHT22;5557;51.670;7.788;2023-02-03T06:01:32;8.70;93.00
11009;DHT22;5557;51.670;7.788;2023-02-03T06:03:59;8.70;92.80
11009;DHT22;5557;51.670;7.788;2023-02-03T06:06:27;8.80;91.60
11009;DHT22;5557;51.670;7.788;2023-02-03T06:09:00;8.80;90.00
11009;DHT22;5557;51.670;7.788;2023-02-03T06:11:27;8.80;90.10
11009;DHT22;5557;51.670;7.788;2023-02-03T06:13:55;8.80;91.20
11009;DHT22;5557;51.670;7.788;2023-02-03T06:16:25;8.80;91.70
11009;DHT22;5557;51.670;7.788;2023-02-03T06:18:53;8.80;92.90
11009;DHT22;5557;51.670;7.788;2023-02-03T06:21:21;8.70;93.50
11009;DHT22;5557;51.670;7.788;2023-02-03T06:23:48;8.70;93.50
11009;DHT22;5557;51.670;7.788;2023-02-03T06:26:15;8.70;93.70
11009;DHT22;5557;51.670;7.788;2023-02-03T06:28:42;8.80;94.00
11009;DHT22;5557;51.670;7.788;2023-02-03T06:31:09;8.70;94.70
11009;DHT22;5557;51.670;7.788;2023-02-03T06:33:37;8.70;96.50
11009;DHT22;5557;51.670;7.788;2023-02-03T06:36:05;8.60;97.40
11009;DHT22;5557;51.670;7.788;2023-02-03T06:38:34;8.60;98.10
11009;DHT22;5557;51.670;7.788;2023-02-03T06:41:01;8.60;99.10
11009;DHT22;5557;51.670;7.788;2023-02-03T06:43:28;8.60;99.90
11009;DHT22;5557;51.670;7.788;2023-02-03T06:45:55;8.50;99.90
11009;DHT22;5557;51.670;7.788;2023-02-03T06:48:22;8.50;99.90
11009;DHT22;5557;51.670;7.788;2023-02-03T06:50:49;8.50;99.90
11009;DHT22;5557;51.670;7.788;2023-02-03T06:53:16;8.50;99.90
11009;DHT22;5557;51.670;7.788;2023-02-03T06:55:43;8.50;99.90
11009;DHT22;5557;51.670;7.788;2023-02-03T06:58:10;8.60;99.50
11009;DHT22;5557;51.670;7.788;2023-02-03T07:00:37;8.60;99.20
11009;DHT22;5557;51.670;7.788;2023-02-03T07:03:04;8.60;99.00
11009;DHT22;5557;51.670;7.788;2023-02-03T07:05:31;8.60;99.40
11009;DHT22;5557;51.670;7.788;2023-02-03T07:07:58;8.60;99.80
11009;DHT22;5557;51.670;7.788;2023-02-03T07:10:25;8.60;99.90
11009;DHT22;5557;51.670;7.788;2023-02-03T07:12:52;8.60;99.90
11009;DHT22;5557;51.670;7.788;2023-02-03T07:15:19;8.50;99.90
11009;DHT22;5557;51.670;7.788;2023-02-03T07:17:47;8.50;99.90
11009;DHT22;5557;51.670;7.788;2023-02-03T07:20:21;8.50;99.90
11009;DHT22;5557;51.670;7.788;2023-02-03T07:22:55;8.50;99.90
11009;DHT22;5557;51.670;7.788;2023-02-03T07:25:23;8.50;99.90
11009;DHT22;5557;51.670;7.788;2023-02-03T07:27:50;8.50;99.90
11009;DHT22;5557;51.670;7.788;2023-02-03T07:30:17;8.50;99.90
11009;DHT22;5557;51.670;7.788;2023-02-03T07:32:52;8.50;99.90
11009;DHT22;5557;51.670;7.788;2023-02-03T07:35:19;8.60;99.90
11009;DHT22;5557;51.670;7.788;2023-02-03T07:37:46;8.60;99.90
11009;DHT22;5557;51.670;7.788;2023-02-03T07:40:14;8.60;99.90
11009;DHT22;5557;51.670;7.788;2023-02-03T07:42:45;8.60;99.90
11009;DHT22;5557;51.670;7.788;2023-02-03T07:45:13;8.60;99.70
11009;DHT22;5557;51.670;7.788;2023-02-03T07:47:42;8.60;98.70
11009;DHT22;5557;51.670;7.788;2023-02-03T07:50:10;8.70;98.30
11009;DHT22;5557;51.670;7.788;2023-02-03T07:52:37;8.70;97.60
11009;DHT22;5557;51.670;7.788;2023-02-03T07:55:05;8.70;97.60
11009;DHT22;5557;51.670;7.788;2023-02-03T07:57:32;8.70;96.80
11009;DHT22;5557;51.670;7.788;2023-02-03T07:59:59;8.70;95.60
11009;DHT22;5557;51.670;7.788;2023-02-03T08:02:25;8.70;95.90
11009;DHT22;5557;51.670;7.788;2023-02-03T08:04:52;8.70;95.90
11009;DHT22;5557;51.670;7.788;2023-02-03T08:07:19;8.70;96.00
11009;DHT22;5557;51.670;7.788;2023-02-03T08:09:46;8.70;95.90
11009;DHT22;5557;51.670;7.788;2023-02-03T08:12:13;8.80;95.90
11009;DHT22;5557;51.670;7.788;2023-02-03T08:14:40;8.80;95.90
11009;DHT22;5557;51.670;7.788;2023-02-03T08:17:07;8.80;95.90
11009;DHT22;5557;51.670;7.788;2023-02-03T08:19:34;8.80;96.30
11009;DHT22;5557;51.670;7.788;2023-02-03T08:22:01;8.80;95.60
11009;DHT22;5557;51.670;7.788;2023-02-03T08:24:28;8.80;96.20
11009;DHT22;5557;51.670;7.788;2023-02-03T08:26:54;8.80;96.40
11009;DHT22;5557;51.670;7.788;2023-02-03T08:29:21;8.80;97.10
11009;DHT22;5557;51.670;7.788;2023-02-03T08:31:48;8.80;98.50
11009;DHT22;5557;51.670;7.788;2023-02-03T08:34:16;8.70;98.80
11009;DHT22;5557;51.670;7.788;2023-02-03T08:36:43;8.70;99.30
11009;DHT22;5557;51.670;7.788;2023-02-03T08:39:10;8.70;99.90
11009;DHT22;5557;51.670;7.788;2023-02-03T08:41:37;8.70;99.90
11009;DHT22;5557;51.670;7.788;2023-02-03T08:44:04;8.60;99.90
11009;DHT22;5557;51.670;7.788;2023-02-03T08:46:31;8.60;99.90
11009;DHT22;5557;51.670;7.788;2023-02-03T08:48:58;8.70;99.90
11009;DHT22;5557;51.670;7.788;2023-02-03T08:51:28;8.70;99.90
11009;DHT22;5557;51.670;7.788;2023-02-03T08:53:55;8.70;99.90
11009;DHT22;5557;51.670;7.788;2023-02-03T08:56:22;8.80;98.90
11009;DHT22;5557;51.670;7.788;2023-02-03T08:58:52;8.90;97.60
11009;DHT22;5557;51.670;7.788;2023-02-03T09:01:21;8.90;97.60
11009;DHT22;5557;51.670;7.788;2023-02-03T09:03:48;8.90;96.90
11009;DHT22;5557;51.670;7.788;2023-02-03T09:06:15;8.90;96.50
11009;DHT22;5557;51.670;7.788;2023-02-03T09:08:43;8.90;95.60
11009;DHT22;5557;51.670;7.788;2023-02-03T09:11:14;9.00;94.70
11009;DHT22;5557;51.670;7.788;2023-02-03T09:13:42;9.00;94.60
11009;DHT22;5557;51.670;7.788;2023-02-03T09:16:13;9.00;93.90
11009;DHT22;5557;51.670;7.788;2023-02-03T09:18:40;9.10;93.70
11009;DHT22;5557;51.670;7.788;2023-02-03T09:21:09;9.10;94.10
11009;DHT22;5557;51.670;7.788;2023-02-03T09:24:01;9.10;94.30
11009;DHT22;5557;51.670;7.788;2023-02-03T09:26:30;9.10;94.10
11009;DHT22;5557;51.670;7.788;2023-02-03T09:28:57;9.10;93.60
11009;DHT22;5557;51.670;7.788;2023-02-03T09:31:24;9.10;93.10
11009;DHT22;5557;51.670;7.788;2023-02-03T09:33:52;9.10;93.20
11009;DHT22;5557;51.670;7.788;2023-02-03T09:36:19;9.20;93.50
11009;DHT22;5557;51.670;7.788;2023-02-03T09:38:46;9.20;94.30
11009;DHT22;5557;51.670;7.788;2023-02-03T09:41:36;9.10;94.60
11009;DHT22;5557;51.670;7.788;2023-02-03T09:44:22;9.20;94.40
11009;DHT22;5557;51.670;7.788;2023-02-03T09:46:54;9.20;93.90
11009;DHT22;5557;51.670;7.788;2023-02-03T09:49:58;9.20;93.80
11009;DHT22;5557;51.670;7.788;2023-02-03T09:52:37;9.20;93.40
11009;DHT22;5557;51.670;7.788;2023-02-03T09:55:35;9.20;93.20
11009;DHT22;5557;51.670;7.788;2023-02-03T09:58:09;9.20;93.70
11009;DHT22;5557;51.670;7.788;2023-02-03T10:01:03;9.20;93.80
11009;DHT22;5557;51.670;7.788;2023-02-03T10:03:52;9.20;94.00
11009;DHT22;5557;51.670;7.788;2023-02-03T10:06:35;9.20;93.80
11009;DHT22;5557;51.670;7.788;2023-02-03T10:12:44;9.30;94.00
11009;DHT22;5557;51.670;7.788;2023-02-03T10:18:30;9.30;94.20
11009;DHT22;5557;51.670;7.788;2023-02-03T10:21:09;9.30;94.30
11009;DHT22;5557;51.670;7.788;2023-02-03T10:23:39;9.30;94.30
11009;DHT22;5557;51.670;7.788;2023-02-03T10:26:13;9.30;94.30
11009;DHT22;5557;51.670;7.788;2023-02-03T10:28:56;9.30;94.70
11009;DHT22;5557;51.670;7.788;2023-02-03T10:31:26;9.30;95.10
11009;DHT22;5557;51.670;7.788;2023-02-03T10:34:08;9.40;95.00
11009;DHT22;5557;51.670;7.788;2023-02-03T10:36:57;9.40;94.90
11009;DHT22;5557;51.670;7.788;2023-02-03T10:39:45;9.40;94.90
11009;DHT22;5557;51.670;7.788;2023-02-03T10:42:13;9.40;95.30
11009;DHT22;5557;51.670;7.788;2023-02-03T10:44:45;9.40;95.20
11009;DHT22;5557;51.670;7.788;2023-02-03T10:47:33;9.40;95.10
11009;DHT22;5557;51.670;7.788;2023-02-03T10:50:16;9.50;95.10
11009;DHT22;5557;51.670;7.788;2023-02-03T10:52:44;9.50;95.40
11009;DHT22;5557;51.670;7.788;2023-02-03T10:55:30;9.40;95.30
11009;DHT22;5557;51.670;7.788;2023-02-03T10:58:05;9.50;95.40
11009;DHT22;5557;51.670;7.788;2023-02-03T11:00:36;9.50;95.40
11009;DHT22;5557;51.670;7.788;2023-02-03T11:03:27;9.50;95.10
11009;DHT22;5557;51.670;7.788;2023-02-03T11:06:24;9.50;94.60
11009;DHT22;5557;51.670;7.788;2023-02-03T11:08:51;9.60;94.90
11009;DHT22;5557;51.670;7.788;2023-02-03T11:11:28;9.50;96.40
11009;DHT22;5557;51.670;7.788;2023-02-03T11:14:23;9.50;99.30
11009;DHT22;5557;51.670;7.788;2023-02-03T11:16:50;9.40;99.90
11009;DHT22;5557;51.670;7.788;2023-02-03T11:19:19;9.40;99.90
11009;DHT22;5557;51.670;7.788;2023-02-03T11:21:51;9.40;99.90
11009;DHT22;5557;51.670;7.788;2023-02-03T11:24:30;9.40;99.90
11009;DHT22;5557;51.670;7.788;2023-02-03T11:30:29;9.40;99.90
11009;DHT22;5557;51.670;7.788;2023-02-03T11:33:00;9.30;99.90
11009;DHT22;5557;51.670;7.788;2023-02-03T11:35:29;9.30;99.90
11009;DHT22;5557;51.670;7.788;2023-02-03T11:38:03;9.20;99.90
11009;DHT22;5557;51.670;7.788;2023-02-03T11:40:33;9.20;99.90
11009;DHT22;5557;51.670;7.788;2023-02-03T11:43:14;9.20;99.90
11009;DHT22;5557;51.670;7.788;2023-02-03T11:45:52;9.30;99.90
11009;DHT22;5557;51.670;7.788;2023-02-03T11:48:49;9.40;99.90
11009;DHT22;5557;51.670;7.788;2023-02-03T11:51:32;9.40;99.90
11009;DHT22;5557;51.670;7.788;2023-02-03T11:54:23;9.50;99.90
11009;DHT22;5557;51.670;7.788;2023-02-03T11:59:53;9.60;99.90
11009;DHT22;5557;51.670;7.788;2023-02-03T12:06:13;9.40;99.90
11009;DHT22;5557;51.670;7.788;2023-02-03T12:10:36;9.30;99.90
11009;DHT22;5557;51.670;7.788;2023-02-03T12:12:16;9.20;99.90
11009;DHT22;5557;51.670;7.788;2023-02-03T12:27:55;8.90;99.90
11009;DHT22;5557;51.670;7.788;2023-02-03T12:30:57;8.90;99.90
11009;DHT22;5557;51.670;7.788;2023-02-03T12:33:37;8.90;99.90
11009;DHT22;5557;51.670;7.788;2023-02-03T12:36:23;8.90;99.90
11009;DHT22;5557;51.670;7.788;2023-02-03T12:38:54;8.90;99.90
11009;DHT22;5557;51.670;7.788;2023-02-03T12:41:31;8.90;99.90
11009;DHT22;5557;51.670;7.788;2023-02-03T12:44:04;8.80;99.90
11009;DHT22;5557;51.670;7.788;2023-02-03T12:46:43;8.70;99.90
11009;DHT22;5557;51.670;7.788;2023-02-03T12:52:41;8.80;99.90
11009;DHT22;5557;51.670;7.788;2023-02-03T12:55:43;8.80;99.90
11009;DHT22;5557;51.670;7.788;2023-02-03T12:58:38;8.80;99.90
11009;DHT22;5557;51.670;7.788;2023-02-03T13:04:32;8.70;99.90
11009;DHT22;5557;51.670;7.788;2023-02-03T13:07:07;8.70;99.90
11009;DHT22;5557;51.670;7.788;2023-02-03T13:09:47;8.80;99.90
11009;DHT22;5557;51.670;7.788;2023-02-03T13:12:36;8.80;99.90
11009;DHT22;5557;51.670;7.788;2023-02-03T13:15:41;8.80;99.90
11009;DHT22;5557;51.670;7.788;2023-02-03T13:18:17;8.80;99.90
11009;DHT22;5557;51.670;7.788;2023-02-03T13:20:45;8.90;99.90
11009;DHT22;5557;51.670;7.788;2023-02-03T13:23:13;8.90;99.90
11009;DHT22;5557;51.670;7.788;2023-02-03T13:28:54;8.90;99.90
11009;DHT22;5557;51.670;7.788;2023-02-03T13:31:58;8.90;99.90
11009;DHT22;5557;51.670;7.788;2023-02-03T13:37:42;8.90;99.90
11009;DHT22;5557;51.670;7.788;2023-02-03T13:41:03;8.90;99.90
11009;DHT22;5557;51.670;7.788;2023-02-03T13:43:25;8.90;99.90
11009;DHT22;5557;51.670;7.788;2023-02-03T13:46:06;8.90;99.90
11009;DHT22;5557;51.670;7.788;2023-02-03T13:48:35;8.90;99.90
11009;DHT22;5557;51.670;7.788;2023-02-03T13:51:24;8.90;99.90
11009;DHT22;5557;51.670;7.788;2023-02-03T13:54:06;8.90;99.90
11009;DHT22;5557;51.670;7.788;2023-02-03T13:56:34;8.90;99.90
11009;DHT22;5557;51.670;7.788;2023-02-03T13:59:25;8.90;99.90
11009;DHT22;5557;51.670;7.788;2023-02-03T14:05:37;8.90;99.90
11009;DHT22;5557;51.670;7.788;2023-02-03T14:07:55;8.90;99.90
11009;DHT22;5557;51.670;7.788;2023-02-03T14:10:23;8.90;99.90
11009;DHT22;5557;51.670;7.788;2023-02-03T14:12:55;8.90;99.70
11009;DHT22;5557;51.670;7.788;2023-02-03T14:15:33;8.80;99.00
11009;DHT22;5557;51.670;7.788;2023-02-03T14:18:30;8.90;99.20
11009;DHT22;5557;51.670;7.788;2023-02-03T14:21:09;8.80;97.20
11009;DHT22;5557;51.670;7.788;2023-02-03T14:23:44;8.80;97.00
11009;DHT22;5557;51.670;7.788;2023-02-03T14:26:34;8.80;96.70
11009;DHT22;5557;51.670;7.788;2023-02-03T14:29:05;8.80;97.00
11009;DHT22;5557;51.670;7.788;2023-02-03T14:32:00;8.80;96.20
11009;DHT22;5557;51.670;7.788;2023-02-03T14:34:48;8.80;91.60
11009;DHT22;5557;51.670;7.788;2023-02-03T14:37:27;8.80;92.70
11009;DHT22;5557;51.670;7.788;2023-02-03T14:40:22;8.80;92.50
11009;DHT22;5557;51.670;7.788;2023-02-03T14:52:51;8.80;90.30
11009;DHT22;5557;51.670;7.788;2023-02-03T14:55:34;8.70;92.00
11009;DHT22;5557;51.670;7.788;2023-02-03T14:58:05;8.70;92.80
11009;DHT22;5557;51.670;7.788;2023-02-03T15:00:34;8.70;84.60
11009;DHT22;5557;51.670;7.788;2023-02-03T15:03:15;8.70;81.60
11009;DHT22;5557;51.670;7.788;2023-02-03T15:06:04;8.70;79.10
11009;DHT22;5557;51.670;7.788;2023-02-03T15:08:51;8.70;72.90
11009;DHT22;5557;51.670;7.788;2023-02-03T15:11:29;8.70;71.10
11009;DHT22;5557;51.670;7.788;2023-02-03T15:14:23;8.70;70.50
11009;DHT22;5557;51.670;7.788;2023-02-03T15:16:56;8.70;66.90
11009;DHT22;5557;51.670;7.788;2023-02-03T15:19:27;8.70;63.40
11009;DHT22;5557;51.670;7.788;2023-02-03T15:21:54;8.60;64.40
11009;DHT22;5557;51.670;7.788;2023-02-03T15:24:21;8.60;63.50
11009;DHT22;5557;51.670;7.788;2023-02-03T15:26:52;8.60;61.30
11009;DHT22;5557;51.670;7.788;2023-02-03T15:29:30;8.60;59.20
11009;DHT22;5557;51.670;7.788;2023-02-03T15:32:25;8.60;60.70
11009;DHT22;5557;51.670;7.788;2023-02-03T15:35:00;8.60;60.60
11009;DHT22;5557;51.670;7.788;2023-02-03T15:37:44;8.60;61.60
11009;DHT22;5557;51.670;7.788;2023-02-03T15:40:16;8.50;60.60
11009;DHT22;5557;51.670;7.788;2023-02-03T15:43:12;8.60;61.60
11009;DHT22;5557;51.670;7.788;2023-02-03T15:45:47;8.50;60.90
11009;DHT22;5557;51.670;7.788;2023-02-03T15:51:29;8.60;55.80
11009;DHT22;5557;51.670;7.788;2023-02-03T15:56:47;8.50;53.60
11009;DHT22;5557;51.670;7.788;2023-02-03T15:59:25;8.50;50.90
11009;DHT22;5557;51.670;7.788;2023-02-03T16:01:56;8.50;51.40
11009;DHT22;5557;51.670;7.788;2023-02-03T16:04:24;8.50;53.50
11009;DHT22;5557;51.670;7.788;2023-02-03T16:06:53;8.50;53.80
11009;DHT22;5557;51.670;7.788;2023-02-03T16:09:33;8.50;51.70
11009;DHT22;5557;51.670;7.788;2023-02-03T16:12:24;8.50;40.90
11009;DHT22;5557;51.670;7.788;2023-02-03T16:14:53;8.50;48.60
11009;DHT22;5557;51.670;7.788;2023-02-03T16:20:22;8.40;46.60
11009;DHT22;5557;51.670;7.788;2023-02-03T16:23:25;8.50;44.70
11009;DHT22;5557;51.670;7.788;2023-02-03T16:26:06;8.40;46.50
11009;DHT22;5557;51.670;7.788;2023-02-03T16:28:33;8.40;44.70
11009;DHT22;5557;51.670;7.788;2023-02-03T16:31:19;8.40;38.20
11009;DHT22;5557;51.670;7.788;2023-02-03T16:34:15;8.40;38.80
11009;DHT22;5557;51.670;7.788;2023-02-03T16:37:09;8.40;40.60
11009;DHT22;5557;51.670;7.788;2023-02-03T16:39:55;8.30;43.70
11009;DHT22;5557;51.670;7.788;2023-02-03T16:42:41;8.30;43.40
11009;DHT22;5557;51.670;7.788;2023-02-03T16:45:26;8.30;44.20
11009;DHT22;5557;51.670;7.788;2023-02-03T16:48:12;8.30;45.40
11009;DHT22;5557;51.670;7.788;2023-02-03T16:51:04;8.20;45.50
11009;DHT22;5557;51.670;7.788;2023-02-03T16:53:32;8.20;41.70
11009;DHT22;5557;51.670;7.788;2023-02-03T16:56:02;8.20;41.90
11009;DHT22;5557;51.670;7.788;2023-02-03T16:58:30;8.30;38.90
11009;DHT22;5557;51.670;7.788;2023-02-03T17:00:59;8.20;36.50
11009;DHT22;5557;51.670;7.788;2023-02-03T17:03:27;8.20;33.20
11009;DHT22;5557;51.670;7.788;2023-02-03T17:05:55;8.20;34.50
11009;DHT22;5557;51.670;7.788;2023-02-03T17:08:24;8.20;38.50
11009;DHT22;5557;51.670;7.788;2023-02-03T17:10:51;8.10;39.30
11009;DHT22;5557;51.670;7.788;2023-02-03T17:13:20;8.10;42.30
11009;DHT22;5557;51.670;7.788;2023-02-03T17:15:50;8.00;40.40
11009;DHT22;5557;51.670;7.788;2023-02-03T17:18:20;8.00;43.20
11009;DHT22;5557;51.670;7.788;2023-02-03T17:20:47;8.00;42.30
11009;DHT22;5557;51.670;7.788;2023-02-03T17:23:15;7.90;40.20
11009;DHT22;5557;51.670;7.788;2023-02-03T17:25:44;7.90;40.10
11009;DHT22;5557;51.670;7.788;2023-02-03T17:28:12;7.90;40.10
11009;DHT22;5557;51.670;7.788;2023-02-03T17:30:40;7.90;40.20
11009;DHT22;5557;51.670;7.788;2023-02-03T17:33:08;8.00;40.20
11009;DHT22;5557;51.670;7.788;2023-02-03T17:35:40;7.90;38.50
11009;DHT22;5557;51.670;7.788;2023-02-03T17:38:08;7.90;39.70
11009;DHT22;5557;51.670;7.788;2023-02-03T17:40:39;7.90;40.20
11009;DHT22;5557;51.670;7.788;2023-02-03T17:43:24;7.80;39.10
11009;DHT22;5557;51.670;7.788;2023-02-03T17:46:10;7.80;37.80
11009;DHT22;5557;51.670;7.788;2023-02-03T17:48:55;7.80;40.20
11009;DHT22;5557;51.670;7.788;2023-02-03T17:51:41;7.80;39.90
11009;DHT22;5557;51.670;7.788;2023-02-03T17:54:26;7.80;37.20
11009;DHT22;5557;51.670;7.788;2023-02-03T17:56:53;7.80;34.30
11009;DHT22;5557;51.670;7.788;2023-02-03T17:59:20;7.80;34.20
11009;DHT22;5557;51.670;7.788;2023-02-03T18:01:47;7.80;33.30